sensor_id;sensor_type;location;lat;lon;timestamp;P1;durP1;ratioP1;P2;durP2;ratioP2
986;SDS011;482;48.778;9.210;2022-07-21T00:00:19;22.47;;;20.37;;
986;SDS011;482;48.778;9.210;2022-07-21T00:02:49;23.20;;;20.97;;
986;SDS011;482;48.778;9.210;2022-07-21T00:05:16;23.50;;;21.20;;
986;SDS011;482;48.778;9.210;2022-07-21T00:07:44;25.83;;;19.50;;
986;SDS011;482;48.778;9.210;2022-07-21T00:10:11;22.27;;;19.90;;
986;SDS011;482;48.778;9.210;2022-07-21T00:12:38;23.70;;;21.40;;
986;SDS011;482;48.778;9.210;2022-07-21T00:15:06;22.73;;;20.43;;
986;SDS011;482;48.778;9.210;2022-07-21T00:17:33;23.00;;;20.70;;
986;SDS011;482;48.778;9.210;2022-07-21T00:20:03;24.07;;;21.87;;
986;SDS011;482;48.778;9.210;2022-07-21T00:22:31;23.60;;;21.20;;
986;SDS011;482;48.778;9.210;2022-07-21T00:24:58;24.80;;;22.40;;
986;SDS011;482;48.778;9.210;2022-07-21T00:27:25;23.77;;;21.30;;
986;SDS011;482;48.778;9.210;2022-07-21T00:29:52;22.20;;;20.10;;
986;SDS011;482;48.778;9.210;2022-07-21T00:32:19;23.50;;;21.10;;
986;SDS011;482;48.778;9.210;2022-07-21T00:34:46;22.73;;;20.43;;
986;SDS011;482;48.778;9.210;2022-07-21T00:37:14;23.73;;;21.47;;
986;SDS011;482;48.778;9.210;2022-07-21T00:39:41;24.50;;;22.10;;
986;SDS011;482;48.778;9.210;2022-07-21T00:42:07;23.90;;;21.60;;
986;SDS011;482;48.778;9.210;2022-07-21T00:44:45;25.40;;;22.90;;
986;SDS011;482;48.778;9.210;2022-07-21T00:47:11;24.80;;;22.40;;
986;SDS011;482;48.778;9.210;2022-07-21T00:49:38;24.60;;;22.23;;
986;SDS011;482;48.778;9.210;2022-07-21T00:52:06;26.00;;;23.33;;
986;SDS011;482;48.778;9.210;2022-07-21T00:54:34;25.20;;;22.80;;
986;SDS011;482;48.778;9.210;2022-07-21T00:57:01;24.57;;;22.07;;
986;SDS011;482;48.778;9.210;2022-07-21T00:59:28;25.17;;;21.63;;
986;SDS011;482;48.778;9.210;2022-07-21T01:01:55;25.20;;;22.70;;
986;SDS011;482;48.778;9.210;2022-07-21T01:04:22;24.23;;;21.53;;
986;SDS011;482;48.778;9.210;2022-07-21T01:06:51;24.83;;;22.43;;
986;SDS011;482;48.778;9.210;2022-07-21T01:09:19;22.87;;;20.67;;
986;SDS011;482;48.778;9.210;2022-07-21T01:11:47;23.00;;;20.70;;
986;SDS011;482;48.778;9.210;2022-07-21T01:14:14;22.20;;;20.20;;
986;SDS011;482;48.778;9.210;2022-07-21T01:16:42;22.07;;;20.07;;
986;SDS011;482;48.778;9.210;2022-07-21T01:19:09;22.63;;;20.40;;
986;SDS011;482;48.778;9.210;2022-07-21T01:21:38;22.10;;;20.10;;
986;SDS011;482;48.778;9.210;2022-07-21T01:24:06;21.97;;;19.77;;
986;SDS011;482;48.778;9.210;2022-07-21T01:26:39;21.50;;;19.47;;
986;SDS011;482;48.778;9.210;2022-07-21T01:29:07;21.17;;;19.17;;
986;SDS011;482;48.778;9.210;2022-07-21T01:31:35;19.50;;;17.70;;
986;SDS011;482;48.778;9.210;2022-07-21T01:34:03;21.40;;;19.50;;
986;SDS011;482;48.778;9.210;2022-07-21T01:36:30;20.83;;;18.83;;
986;SDS011;482;48.778;9.210;2022-07-21T01:38:59;20.50;;;18.47;;
986;SDS011;482;48.778;9.210;2022-07-21T01:41:43;20.47;;;18.57;;
986;SDS011;482;48.778;9.210;2022-07-21T01:44:11;19.83;;;18.00;;
986;SDS011;482;48.778;9.210;2022-07-21T01:46:40;20.80;;;18.80;;
986;SDS011;482;48.778;9.210;2022-07-21T01:49:10;20.67;;;18.77;;
986;SDS011;482;48.778;9.210;2022-07-21T01:51:37;21.07;;;18.97;;
986;SDS011;482;48.778;9.210;2022-07-21T01:54:06;20.83;;;18.73;;
986;SDS011;482;48.778;9.210;2022-07-21T01:56:35;19.53;;;17.77;;
986;SDS011;482;48.778;9.210;2022-07-21T01:59:04;18.60;;;16.77;;
986;SDS011;482;48.778;9.210;2022-07-21T02:01:31;17.37;;;15.67;;
986;SDS011;482;48.778;9.210;2022-07-21T02:03:59;17.27;;;15.67;;
986;SDS011;482;48.778;9.210;2022-07-21T02:06:27;17.87;;;16.17;;
986;SDS011;482;48.778;9.210;2022-07-21T02:08:54;18.00;;;16.30;;
986;SDS011;482;48.778;9.210;2022-07-21T02:11:23;17.80;;;16.17;;
986;SDS011;482;48.778;9.210;2022-07-21T02:13:50;17.77;;;16.00;;
986;SDS011;482;48.778;9.210;2022-07-21T02:16:17;16.93;;;15.33;;
986;SDS011;482;48.778;9.210;2022-07-21T02:18:44;17.43;;;15.70;;
986;SDS011;482;48.778;9.210;2022-07-21T02:21:11;15.73;;;14.20;;
986;SDS011;482;48.778;9.210;2022-07-21T02:23:38;16.93;;;15.23;;
986;SDS011;482;48.778;9.210;2022-07-21T02:26:05;15.50;;;14.10;;
986;SDS011;482;48.778;9.210;2022-07-21T02:28:33;16.07;;;14.37;;
986;SDS011;482;48.778;9.210;2022-07-21T02:31:00;14.33;;;12.93;;
986;SDS011;482;48.778;9.210;2022-07-21T02:33:27;16.50;;;14.90;;
986;SDS011;482;48.778;9.210;2022-07-21T02:35:54;16.10;;;14.60;;
986;SDS011;482;48.778;9.210;2022-07-21T02:38:21;15.63;;;14.10;;
986;SDS011;482;48.778;9.210;2022-07-21T02:40:48;16.10;;;14.60;;
986;SDS011;482;48.778;9.210;2022-07-21T02:43:15;15.60;;;14.20;;
986;SDS011;482;48.778;9.210;2022-07-21T02:45:43;14.50;;;13.10;;
986;SDS011;482;48.778;9.210;2022-07-21T02:48:10;16.60;;;14.90;;
986;SDS011;482;48.778;9.210;2022-07-21T02:50:39;15.77;;;14.27;;
986;SDS011;482;48.778;9.210;2022-07-21T02:53:07;15.90;;;14.20;;
986;SDS011;482;48.778;9.210;2022-07-21T02:55:35;15.73;;;14.13;;
986;SDS011;482;48.778;9.210;2022-07-21T02:58:03;15.70;;;14.23;;
986;SDS011;482;48.778;9.210;2022-07-21T03:00:32;17.93;;;15.67;;
986;SDS011;482;48.778;9.210;2022-07-21T03:03:01;15.23;;;13.73;;
986;SDS011;482;48.778;9.210;2022-07-21T03:05:28;15.90;;;14.30;;
986;SDS011;482;48.778;9.210;2022-07-21T03:07:55;15.33;;;13.83;;
986;SDS011;482;48.778;9.210;2022-07-21T03:10:22;15.10;;;13.70;;
986;SDS011;482;48.778;9.210;2022-07-21T03:12:49;15.10;;;13.60;;
986;SDS011;482;48.778;9.210;2022-07-21T03:15:16;14.63;;;13.27;;
986;SDS011;482;48.778;9.210;2022-07-21T03:17:43;15.40;;;13.00;;
986;SDS011;482;48.778;9.210;2022-07-21T03:20:11;15.27;;;13.77;;
986;SDS011;482;48.778;9.210;2022-07-21T03:22:38;15.07;;;13.47;;
986;SDS011;482;48.778;9.210;2022-07-21T03:25:06;16.53;;;14.93;;
986;SDS011;482;48.778;9.210;2022-07-21T03:27:33;15.43;;;13.93;;
986;SDS011;482;48.778;9.210;2022-07-21T03:30:03;16.27;;;13.77;;
986;SDS011;482;48.778;9.210;2022-07-21T03:32:32;15.43;;;14.03;;
986;SDS011;482;48.778;9.210;2022-07-21T03:34:59;15.70;;;14.10;;
986;SDS011;482;48.778;9.210;2022-07-21T03:37:28;13.83;;;12.53;;
986;SDS011;482;48.778;9.210;2022-07-21T03:39:55;14.50;;;13.00;;
986;SDS011;482;48.778;9.210;2022-07-21T03:42:22;14.00;;;12.60;;
986;SDS011;482;48.778;9.210;2022-07-21T03:44:49;14.07;;;12.67;;
986;SDS011;482;48.778;9.210;2022-07-21T03:47:16;13.60;;;12.30;;
986;SDS011;482;48.778;9.210;2022-07-21T03:49:43;12.90;;;11.70;;
986;SDS011;482;48.778;9.210;2022-07-21T03:52:09;13.10;;;11.90;;
986;SDS011;482;48.778;9.210;2022-07-21T03:54:38;13.40;;;12.10;;
986;SDS011;482;48.778;9.210;2022-07-21T03:57:04;14.13;;;12.80;;
986;SDS011;482;48.778;9.210;2022-07-21T03:59:31;14.47;;;12.97;;
986;SDS011;482;48.778;9.210;2022-07-21T04:01:58;12.40;;;11.30;;
986;SDS011;482;48.778;9.210;2022-07-21T04:04:25;12.60;;;11.50;;
986;SDS011;482;48.778;9.210;2022-07-21T04:06:52;14.87;;;12.43;;
986;SDS011;482;48.778;9.210;2022-07-21T04:09:19;12.90;;;11.70;;
986;SDS011;482;48.778;9.210;2022-07-21T04:11:47;19.83;;;17.93;;
986;SDS011;482;48.778;9.210;2022-07-21T04:14:14;14.37;;;13.00;;
986;SDS011;482;48.778;9.210;2022-07-21T04:16:40;12.83;;;11.63;;
986;SDS011;482;48.778;9.210;2022-07-21T04:19:07;13.43;;;12.23;;
986;SDS011;482;48.778;9.210;2022-07-21T04:21:34;13.37;;;12.07;;
986;SDS011;482;48.778;9.210;2022-07-21T04:24:01;13.80;;;12.50;;
986;SDS011;482;48.778;9.210;2022-07-21T04:26:28;13.73;;;12.43;;
986;SDS011;482;48.778;9.210;2022-07-21T04:28:56;13.13;;;11.93;;
986;SDS011;482;48.778;9.210;2022-07-21T04:31:23;12.90;;;11.70;;
986;SDS011;482;48.778;9.210;2022-07-21T04:33:50;13.20;;;11.90;;
986;SDS011;482;48.778;9.210;2022-07-21T04:36:16;14.10;;;12.80;;
986;SDS011;482;48.778;9.210;2022-07-21T04:38:43;16.27;;;12.67;;
986;SDS011;482;48.778;9.210;2022-07-21T04:41:10;13.97;;;12.57;;
986;SDS011;482;48.778;9.210;2022-07-21T04:43:37;13.70;;;12.43;;
986;SDS011;482;48.778;9.210;2022-07-21T04:46:05;14.00;;;12.60;;
986;SDS011;482;48.778;9.210;2022-07-21T04:48:32;13.67;;;12.43;;
986;SDS011;482;48.778;9.210;2022-07-21T04:50:59;12.80;;;11.63;;
986;SDS011;482;48.778;9.210;2022-07-21T04:53:26;13.83;;;12.53;;
986;SDS011;482;48.778;9.210;2022-07-21T04:55:53;13.23;;;12.03;;
986;SDS011;482;48.778;9.210;2022-07-21T04:58:20;13.53;;;12.13;;
986;SDS011;482;48.778;9.210;2022-07-21T05:00:46;14.50;;;11.83;;
986;SDS011;482;48.778;9.210;2022-07-21T05:03:15;13.50;;;12.27;;
986;SDS011;482;48.778;9.210;2022-07-21T05:05:42;13.70;;;12.40;;
986;SDS011;482;48.778;9.210;2022-07-21T05:08:08;14.43;;;13.03;;
986;SDS011;482;48.778;9.210;2022-07-21T05:10:35;14.30;;;12.60;;
986;SDS011;482;48.778;9.210;2022-07-21T05:13:02;14.97;;;13.57;;
986;SDS011;482;48.778;9.210;2022-07-21T05:15:29;15.40;;;14.10;;
986;SDS011;482;48.778;9.210;2022-07-21T05:17:56;14.53;;;12.93;;
986;SDS011;482;48.778;9.210;2022-07-21T05:20:24;13.67;;;12.40;;
986;SDS011;482;48.778;9.210;2022-07-21T05:22:51;14.87;;;13.33;;
986;SDS011;482;48.778;9.210;2022-07-21T05:25:18;14.10;;;12.80;;
986;SDS011;482;48.778;9.210;2022-07-21T05:27:45;14.57;;;13.07;;
986;SDS011;482;48.778;9.210;2022-07-21T05:30:12;13.37;;;12.10;;
986;SDS011;482;48.778;9.210;2022-07-21T05:32:39;14.43;;;13.13;;
986;SDS011;482;48.778;9.210;2022-07-21T05:35:06;14.03;;;12.73;;
986;SDS011;482;48.778;9.210;2022-07-21T05:37:37;13.97;;;12.67;;
986;SDS011;482;48.778;9.210;2022-07-21T05:40:05;14.10;;;12.70;;
986;SDS011;482;48.778;9.210;2022-07-21T05:42:34;14.10;;;12.80;;
986;SDS011;482;48.778;9.210;2022-07-21T05:45:01;13.67;;;12.47;;
986;SDS011;482;48.778;9.210;2022-07-21T05:47:28;14.90;;;13.60;;
986;SDS011;482;48.778;9.210;2022-07-21T05:49:56;14.67;;;13.17;;
986;SDS011;482;48.778;9.210;2022-07-21T05:52:23;14.00;;;12.70;;
986;SDS011;482;48.778;9.210;2022-07-21T05:54:52;15.50;;;13.90;;
986;SDS011;482;48.778;9.210;2022-07-21T05:57:18;14.60;;;13.30;;
986;SDS011;482;48.778;9.210;2022-07-21T05:59:45;15.23;;;13.83;;
986;SDS011;482;48.778;9.210;2022-07-21T06:02:12;15.20;;;13.70;;
986;SDS011;482;48.778;9.210;2022-07-21T06:04:40;15.40;;;14.00;;
986;SDS011;482;48.778;9.210;2022-07-21T06:07:07;14.97;;;13.43;;
986;SDS011;482;48.778;9.210;2022-07-21T06:09:34;14.43;;;12.70;;
986;SDS011;482;48.778;9.210;2022-07-21T06:12:02;14.77;;;13.47;;
986;SDS011;482;48.778;9.210;2022-07-21T06:14:29;15.00;;;13.57;;
986;SDS011;482;48.778;9.210;2022-07-21T06:16:56;14.93;;;13.60;;
986;SDS011;482;48.778;9.210;2022-07-21T06:19:23;14.83;;;13.53;;
986;SDS011;482;48.778;9.210;2022-07-21T06:21:50;15.50;;;14.10;;
986;SDS011;482;48.778;9.210;2022-07-21T06:24:17;14.40;;;13.07;;
986;SDS011;482;48.778;9.210;2022-07-21T06:26:44;14.30;;;13.10;;
986;SDS011;482;48.778;9.210;2022-07-21T06:29:13;14.50;;;13.30;;
986;SDS011;482;48.778;9.210;2022-07-21T06:31:39;13.70;;;12.40;;
986;SDS011;482;48.778;9.210;2022-07-21T06:34:06;15.63;;;14.03;;
986;SDS011;482;48.778;9.210;2022-07-21T06:36:33;16.00;;;13.97;;
986;SDS011;482;48.778;9.210;2022-07-21T06:39:00;15.23;;;13.80;;
986;SDS011;482;48.778;9.210;2022-07-21T06:41:27;14.40;;;13.17;;
986;SDS011;482;48.778;9.210;2022-07-21T06:43:54;14.63;;;13.33;;
986;SDS011;482;48.778;9.210;2022-07-21T06:46:22;15.70;;;14.30;;
986;SDS011;482;48.778;9.210;2022-07-21T06:48:49;14.63;;;13.33;;
986;SDS011;482;48.778;9.210;2022-07-21T06:51:16;14.70;;;13.50;;
986;SDS011;482;48.778;9.210;2022-07-21T06:53:43;15.17;;;13.67;;
986;SDS011;482;48.778;9.210;2022-07-21T06:56:10;13.83;;;12.70;;
986;SDS011;482;48.778;9.210;2022-07-21T06:58:37;14.10;;;12.87;;
986;SDS011;482;48.778;9.210;2022-07-21T07:01:04;14.80;;;13.30;;
986;SDS011;482;48.778;9.210;2022-07-21T07:03:32;14.07;;;12.77;;
986;SDS011;482;48.778;9.210;2022-07-21T07:05:59;13.43;;;12.23;;
986;SDS011;482;48.778;9.210;2022-07-21T07:08:26;13.43;;;12.10;;
986;SDS011;482;48.778;9.210;2022-07-21T07:10:53;13.17;;;11.97;;
986;SDS011;482;48.778;9.210;2022-07-21T07:13:20;11.80;;;10.80;;
986;SDS011;482;48.778;9.210;2022-07-21T07:15:47;14.60;;;13.10;;
986;SDS011;482;48.778;9.210;2022-07-21T07:18:13;13.70;;;12.30;;
986;SDS011;482;48.778;9.210;2022-07-21T07:20:42;14.30;;;13.10;;
986;SDS011;482;48.778;9.210;2022-07-21T07:23:09;13.17;;;11.77;;
986;SDS011;482;48.778;9.210;2022-07-21T07:25:35;12.50;;;11.50;;
986;SDS011;482;48.778;9.210;2022-07-21T07:28:03;12.53;;;11.37;;
986;SDS011;482;48.778;9.210;2022-07-21T07:30:32;13.63;;;12.53;;
986;SDS011;482;48.778;9.210;2022-07-21T07:32:58;13.30;;;12.10;;
986;SDS011;482;48.778;9.210;2022-07-21T07:35:25;12.73;;;11.67;;
986;SDS011;482;48.778;9.210;2022-07-21T07:37:54;12.93;;;11.80;;
986;SDS011;482;48.778;9.210;2022-07-21T07:40:21;13.77;;;12.37;;
986;SDS011;482;48.778;9.210;2022-07-21T07:42:49;13.27;;;12.17;;
986;SDS011;482;48.778;9.210;2022-07-21T07:45:16;12.47;;;11.43;;
986;SDS011;482;48.778;9.210;2022-07-21T07:47:43;12.00;;;11.00;;
986;SDS011;482;48.778;9.210;2022-07-21T07:50:11;13.07;;;11.87;;
986;SDS011;482;48.778;9.210;2022-07-21T07:52:40;13.23;;;11.90;;
986;SDS011;482;48.778;9.210;2022-07-21T07:55:10;11.70;;;10.63;;
986;SDS011;482;48.778;9.210;2022-07-21T07:57:37;11.50;;;10.50;;
986;SDS011;482;48.778;9.210;2022-07-21T08:00:05;11.63;;;10.67;;
986;SDS011;482;48.778;9.210;2022-07-21T08:02:35;11.10;;;10.20;;
986;SDS011;482;48.778;9.210;2022-07-21T08:05:02;12.23;;;11.23;;
986;SDS011;482;48.778;9.210;2022-07-21T08:07:29;10.30;;;9.50;;
986;SDS011;482;48.778;9.210;2022-07-21T08:09:56;11.70;;;10.70;;
986;SDS011;482;48.778;9.210;2022-07-21T08:12:24;11.20;;;10.30;;
986;SDS011;482;48.778;9.210;2022-07-21T08:14:51;10.53;;;9.63;;
986;SDS011;482;48.778;9.210;2022-07-21T08:17:18;10.83;;;9.93;;
986;SDS011;482;48.778;9.210;2022-07-21T08:19:45;12.17;;;10.97;;
986;SDS011;482;48.778;9.210;2022-07-21T08:22:12;10.10;;;9.30;;
986;SDS011;482;48.778;9.210;2022-07-21T08:24:39;9.57;;;8.77;;
986;SDS011;482;48.778;9.210;2022-07-21T08:27:06;10.10;;;9.10;;
986;SDS011;482;48.778;9.210;2022-07-21T08:29:34;9.80;;;8.90;;
986;SDS011;482;48.778;9.210;2022-07-21T08:32:01;10.63;;;9.73;;
986;SDS011;482;48.778;9.210;2022-07-21T08:34:28;10.33;;;9.40;;
986;SDS011;482;48.778;9.210;2022-07-21T08:36:56;10.63;;;9.60;;
986;SDS011;482;48.778;9.210;2022-07-21T08:39:22;10.20;;;9.20;;
986;SDS011;482;48.778;9.210;2022-07-21T08:41:50;10.30;;;9.50;;
986;SDS011;482;48.778;9.210;2022-07-21T08:44:17;10.63;;;9.70;;
986;SDS011;482;48.778;9.210;2022-07-21T08:46:48;10.67;;;9.80;;
986;SDS011;482;48.778;9.210;2022-07-21T08:49:19;10.47;;;9.67;;
986;SDS011;482;48.778;9.210;2022-07-21T08:51:47;10.60;;;9.70;;
986;SDS011;482;48.778;9.210;2022-07-21T08:54:16;9.53;;;8.83;;
986;SDS011;482;48.778;9.210;2022-07-21T08:56:43;12.13;;;11.10;;
986;SDS011;482;48.778;9.210;2022-07-21T08:59:10;9.80;;;9.10;;
986;SDS011;482;48.778;9.210;2022-07-21T09:01:36;10.47;;;9.60;;
986;SDS011;482;48.778;9.210;2022-07-21T09:04:21;9.57;;;8.77;;
986;SDS011;482;48.778;9.210;2022-07-21T09:06:50;10.07;;;9.27;;
986;SDS011;482;48.778;9.210;2022-07-21T09:09:19;9.40;;;8.70;;
986;SDS011;482;48.778;9.210;2022-07-21T09:11:47;10.67;;;9.87;;
986;SDS011;482;48.778;9.210;2022-07-21T09:14:15;9.97;;;9.20;;
986;SDS011;482;48.778;9.210;2022-07-21T09:16:45;10.30;;;9.30;;
986;SDS011;482;48.778;9.210;2022-07-21T09:19:17;9.20;;;8.60;;
986;SDS011;482;48.778;9.210;2022-07-21T09:21:47;9.00;;;8.40;;
986;SDS011;482;48.778;9.210;2022-07-21T09:24:19;13.03;;;11.97;;
986;SDS011;482;48.778;9.210;2022-07-21T09:29:47;8.40;;;7.90;;
986;SDS011;482;48.778;9.210;2022-07-21T09:32:16;9.50;;;8.90;;
986;SDS011;482;48.778;9.210;2022-07-21T09:34:46;8.17;;;7.57;;
986;SDS011;482;48.778;9.210;2022-07-21T09:37:15;8.67;;;8.00;;
986;SDS011;482;48.778;9.210;2022-07-21T09:39:43;7.93;;;7.43;;
986;SDS011;482;48.778;9.210;2022-07-21T09:42:12;8.60;;;8.00;;
986;SDS011;482;48.778;9.210;2022-07-21T09:44:41;7.73;;;7.23;;
986;SDS011;482;48.778;9.210;2022-07-21T09:47:10;8.27;;;7.73;;
986;SDS011;482;48.778;9.210;2022-07-21T09:49:38;7.90;;;7.40;;
986;SDS011;482;48.778;9.210;2022-07-21T09:52:18;8.40;;;7.80;;
986;SDS011;482;48.778;9.210;2022-07-21T09:54:46;8.30;;;7.70;;
986;SDS011;482;48.778;9.210;2022-07-21T09:57:13;7.70;;;7.20;;
986;SDS011;482;48.778;9.210;2022-07-21T09:59:42;8.37;;;7.87;;
986;SDS011;482;48.778;9.210;2022-07-21T10:02:10;8.30;;;7.80;;
986;SDS011;482;48.778;9.210;2022-07-21T10:04:41;8.80;;;8.13;;
986;SDS011;482;48.778;9.210;2022-07-21T10:07:09;8.67;;;8.00;;
986;SDS011;482;48.778;9.210;2022-07-21T10:09:38;8.10;;;7.60;;
986;SDS011;482;48.778;9.210;2022-07-21T10:12:06;7.90;;;7.40;;
986;SDS011;482;48.778;9.210;2022-07-21T10:14:34;7.97;;;7.37;;
986;SDS011;482;48.778;9.210;2022-07-21T10:17:02;7.00;;;6.60;;
986;SDS011;482;48.778;9.210;2022-07-21T10:19:31;7.77;;;7.27;;
986;SDS011;482;48.778;9.210;2022-07-21T10:22:04;6.87;;;6.47;;
986;SDS011;482;48.778;9.210;2022-07-21T10:24:35;7.50;;;7.10;;
986;SDS011;482;48.778;9.210;2022-07-21T10:27:05;6.43;;;6.00;;
986;SDS011;482;48.778;9.210;2022-07-21T10:29:48;6.50;;;6.10;;
986;SDS011;482;48.778;9.210;2022-07-21T10:32:20;6.73;;;6.33;;
986;SDS011;482;48.778;9.210;2022-07-21T10:34:47;7.43;;;6.93;;
986;SDS011;482;48.778;9.210;2022-07-21T10:43:35;7.80;;;7.30;;
986;SDS011;482;48.778;9.210;2022-07-21T10:49:02;7.57;;;7.07;;
986;SDS011;482;48.778;9.210;2022-07-21T10:51:31;6.43;;;6.03;;
986;SDS011;482;48.778;9.210;2022-07-21T10:54:15;6.13;;;5.63;;
986;SDS011;482;48.778;9.210;2022-07-21T10:56:44;6.43;;;6.03;;
986;SDS011;482;48.778;9.210;2022-07-21T10:59:11;6.47;;;5.90;;
986;SDS011;482;48.778;9.210;2022-07-21T11:01:38;6.00;;;5.60;;
986;SDS011;482;48.778;9.210;2022-07-21T11:04:08;5.93;;;5.53;;
986;SDS011;482;48.778;9.210;2022-07-21T11:06:36;6.80;;;6.30;;
986;SDS011;482;48.778;9.210;2022-07-21T11:09:11;6.60;;;6.20;;
986;SDS011;482;48.778;9.210;2022-07-21T11:11:40;6.63;;;6.10;;
986;SDS011;482;48.778;9.210;2022-07-21T11:14:34;6.93;;;6.43;;
986;SDS011;482;48.778;9.210;2022-07-21T11:17:03;6.33;;;5.83;;
986;SDS011;482;48.778;9.210;2022-07-21T11:19:31;6.60;;;6.00;;
986;SDS011;482;48.778;9.210;2022-07-21T11:22:01;6.40;;;5.90;;
986;SDS011;482;48.778;9.210;2022-07-21T11:24:30;6.60;;;6.10;;
986;SDS011;482;48.778;9.210;2022-07-21T11:26:59;6.80;;;6.30;;
986;SDS011;482;48.778;9.210;2022-07-21T11:29:27;6.30;;;5.90;;
986;SDS011;482;48.778;9.210;2022-07-21T11:31:55;6.43;;;5.90;;
986;SDS011;482;48.778;9.210;2022-07-21T11:34:23;6.57;;;6.07;;
986;SDS011;482;48.778;9.210;2022-07-21T11:36:57;6.87;;;6.40;;
986;SDS011;482;48.778;9.210;2022-07-21T11:39:25;7.00;;;6.50;;
986;SDS011;482;48.778;9.210;2022-07-21T11:41:52;6.33;;;5.83;;
986;SDS011;482;48.778;9.210;2022-07-21T11:44:24;6.93;;;6.47;;
986;SDS011;482;48.778;9.210;2022-07-21T11:46:52;6.60;;;6.10;;
986;SDS011;482;48.778;9.210;2022-07-21T11:49:21;7.10;;;6.43;;
986;SDS011;482;48.778;9.210;2022-07-21T11:51:49;6.47;;;6.03;;
986;SDS011;482;48.778;9.210;2022-07-21T11:54:20;6.93;;;6.43;;
986;SDS011;482;48.778;9.210;2022-07-21T11:56:55;6.90;;;6.10;;
986;SDS011;482;48.778;9.210;2022-07-21T11:59:24;6.40;;;6.00;;
986;SDS011;482;48.778;9.210;2022-07-21T12:01:53;7.13;;;6.53;;
986;SDS011;482;48.778;9.210;2022-07-21T12:04:32;6.63;;;6.13;;
986;SDS011;482;48.778;9.210;2022-07-21T12:07:13;7.30;;;6.60;;
986;SDS011;482;48.778;9.210;2022-07-21T12:09:46;7.40;;;6.90;;
986;SDS011;482;48.778;9.210;2022-07-21T12:12:14;7.63;;;7.03;;
986;SDS011;482;48.778;9.210;2022-07-21T12:14:54;7.20;;;6.67;;
986;SDS011;482;48.778;9.210;2022-07-21T12:17:31;7.40;;;6.90;;
986;SDS011;482;48.778;9.210;2022-07-21T12:19:59;12.90;;;11.53;;
986;SDS011;482;48.778;9.210;2022-07-21T12:22:36;7.80;;;7.17;;
986;SDS011;482;48.778;9.210;2022-07-21T12:25:05;7.13;;;6.63;;
986;SDS011;482;48.778;9.210;2022-07-21T12:27:33;7.80;;;7.20;;
986;SDS011;482;48.778;9.210;2022-07-21T12:30:06;7.80;;;6.77;;
986;SDS011;482;48.778;9.210;2022-07-21T12:32:39;7.83;;;7.23;;
986;SDS011;482;48.778;9.210;2022-07-21T12:35:21;7.50;;;6.90;;
986;SDS011;482;48.778;9.210;2022-07-21T12:37:53;9.10;;;8.40;;
986;SDS011;482;48.778;9.210;2022-07-21T12:40:32;11.90;;;8.97;;
986;SDS011;482;48.778;9.210;2022-07-21T12:43:08;8.70;;;7.80;;
986;SDS011;482;48.778;9.210;2022-07-21T12:45:45;9.47;;;8.77;;
986;SDS011;482;48.778;9.210;2022-07-21T12:48:17;10.33;;;9.53;;
986;SDS011;482;48.778;9.210;2022-07-21T12:51:09;11.20;;;10.37;;
986;SDS011;482;48.778;9.210;2022-07-21T12:53:39;10.50;;;9.67;;
986;SDS011;482;48.778;9.210;2022-07-21T12:56:08;10.10;;;9.30;;
986;SDS011;482;48.778;9.210;2022-07-21T12:58:36;11.37;;;10.30;;
986;SDS011;482;48.778;9.210;2022-07-21T13:01:05;10.70;;;9.90;;
986;SDS011;482;48.778;9.210;2022-07-21T13:03:32;10.17;;;9.30;;
986;SDS011;482;48.778;9.210;2022-07-21T13:06:00;9.60;;;8.80;;
986;SDS011;482;48.778;9.210;2022-07-21T13:08:28;9.33;;;8.63;;
986;SDS011;482;48.778;9.210;2022-07-21T13:10:55;9.53;;;8.83;;
986;SDS011;482;48.778;9.210;2022-07-21T13:13:22;9.63;;;8.83;;
986;SDS011;482;48.778;9.210;2022-07-21T13:15:53;10.33;;;9.53;;
986;SDS011;482;48.778;9.210;2022-07-21T13:18:22;9.83;;;9.03;;
986;SDS011;482;48.778;9.210;2022-07-21T13:20:49;9.53;;;8.67;;
986;SDS011;482;48.778;9.210;2022-07-21T13:23:17;10.23;;;9.43;;
986;SDS011;482;48.778;9.210;2022-07-21T13:25:44;11.00;;;10.10;;
986;SDS011;482;48.778;9.210;2022-07-21T13:28:11;9.93;;;9.13;;
986;SDS011;482;48.778;9.210;2022-07-21T13:30:38;9.40;;;8.50;;
986;SDS011;482;48.778;9.210;2022-07-21T13:33:05;9.87;;;9.17;;
986;SDS011;482;48.778;9.210;2022-07-21T13:35:33;9.50;;;8.80;;
986;SDS011;482;48.778;9.210;2022-07-21T13:38:00;9.17;;;8.47;;
986;SDS011;482;48.778;9.210;2022-07-21T13:40:27;10.17;;;9.37;;
986;SDS011;482;48.778;9.210;2022-07-21T13:42:54;9.93;;;9.03;;
986;SDS011;482;48.778;9.210;2022-07-21T13:45:21;9.63;;;8.83;;
986;SDS011;482;48.778;9.210;2022-07-21T13:47:48;9.93;;;9.07;;
986;SDS011;482;48.778;9.210;2022-07-21T13:50:15;9.43;;;8.53;;
986;SDS011;482;48.778;9.210;2022-07-21T13:52:43;9.80;;;9.00;;
986;SDS011;482;48.778;9.210;2022-07-21T13:55:10;9.13;;;8.37;;
986;SDS011;482;48.778;9.210;2022-07-21T13:57:37;9.63;;;8.77;;
986;SDS011;482;48.778;9.210;2022-07-21T14:00:05;9.53;;;8.83;;
986;SDS011;482;48.778;9.210;2022-07-21T14:02:35;9.13;;;8.47;;
986;SDS011;482;48.778;9.210;2022-07-21T14:05:03;9.77;;;8.90;;
986;SDS011;482;48.778;9.210;2022-07-21T14:07:30;9.80;;;9.00;;
986;SDS011;482;48.778;9.210;2022-07-21T14:09:59;9.40;;;8.60;;
986;SDS011;482;48.778;9.210;2022-07-21T14:12:26;8.90;;;8.23;;
986;SDS011;482;48.778;9.210;2022-07-21T14:14:53;9.10;;;8.30;;
986;SDS011;482;48.778;9.210;2022-07-21T14:17:19;9.17;;;8.47;;
986;SDS011;482;48.778;9.210;2022-07-21T14:19:46;9.17;;;8.43;;
986;SDS011;482;48.778;9.210;2022-07-21T14:22:13;8.63;;;8.00;;
986;SDS011;482;48.778;9.210;2022-07-21T14:24:41;8.07;;;7.37;;
986;SDS011;482;48.778;9.210;2022-07-21T14:27:27;8.70;;;7.90;;
986;SDS011;482;48.778;9.210;2022-07-21T14:29:54;8.30;;;7.60;;
986;SDS011;482;48.778;9.210;2022-07-21T14:32:22;8.60;;;7.90;;
986;SDS011;482;48.778;9.210;2022-07-21T14:34:48;7.97;;;7.37;;
986;SDS011;482;48.778;9.210;2022-07-21T14:37:16;8.70;;;8.00;;
986;SDS011;482;48.778;9.210;2022-07-21T14:39:44;8.83;;;8.13;;
986;SDS011;482;48.778;9.210;2022-07-21T14:42:11;9.10;;;8.30;;
986;SDS011;482;48.778;9.210;2022-07-21T14:44:39;8.20;;;7.53;;
986;SDS011;482;48.778;9.210;2022-07-21T14:47:06;8.17;;;7.47;;
986;SDS011;482;48.778;9.210;2022-07-21T14:49:33;9.03;;;8.33;;
986;SDS011;482;48.778;9.210;2022-07-21T14:52:00;7.90;;;7.20;;
986;SDS011;482;48.778;9.210;2022-07-21T14:54:27;8.70;;;8.00;;
986;SDS011;482;48.778;9.210;2022-07-21T14:56:54;8.20;;;7.50;;
986;SDS011;482;48.778;9.210;2022-07-21T14:59:21;7.87;;;7.37;;
986;SDS011;482;48.778;9.210;2022-07-21T15:01:49;7.63;;;7.03;;
986;SDS011;482;48.778;9.210;2022-07-21T15:04:16;9.10;;;7.73;;
986;SDS011;482;48.778;9.210;2022-07-21T15:06:44;8.33;;;7.63;;
986;SDS011;482;48.778;9.210;2022-07-21T15:09:11;7.53;;;6.93;;
986;SDS011;482;48.778;9.210;2022-07-21T15:11:38;7.67;;;7.07;;
986;SDS011;482;48.778;9.210;2022-07-21T15:14:05;7.83;;;7.03;;
986;SDS011;482;48.778;9.210;2022-07-21T15:16:32;7.40;;;6.90;;
986;SDS011;482;48.778;9.210;2022-07-21T15:19:00;7.70;;;7.07;;
986;SDS011;482;48.778;9.210;2022-07-21T15:21:27;7.60;;;6.73;;
986;SDS011;482;48.778;9.210;2022-07-21T15:23:53;6.70;;;6.20;;
986;SDS011;482;48.778;9.210;2022-07-21T15:26:20;7.20;;;6.60;;
986;SDS011;482;48.778;9.210;2022-07-21T15:28:47;7.60;;;7.00;;
986;SDS011;482;48.778;9.210;2022-07-21T15:31:14;7.63;;;7.10;;
986;SDS011;482;48.778;9.210;2022-07-21T15:33:41;7.63;;;6.93;;
986;SDS011;482;48.778;9.210;2022-07-21T15:36:09;6.77;;;6.30;;
986;SDS011;482;48.778;9.210;2022-07-21T15:38:36;7.27;;;6.70;;
986;SDS011;482;48.778;9.210;2022-07-21T15:41:03;7.20;;;6.60;;
986;SDS011;482;48.778;9.210;2022-07-21T15:43:30;8.03;;;7.43;;
986;SDS011;482;48.778;9.210;2022-07-21T15:45:57;7.70;;;7.10;;